sensor_id;sensor_type;location;lat;lon;timestamp;pressure;altitude;pressure_sealevel;temperature;humidity
54042;BME280;41156;51.508;5.406;2022-09-12T00:01:37;101612.22;;;13.83;97.07
54042;BME280;41156;51.508;5.406;2022-09-12T00:04:37;101613.50;;;13.81;97.07
54042;BME280;41156;51.508;5.406;2022-09-12T00:07:38;101599.75;;;13.76;97.12
54042;BME280;41156;51.508;5.406;2022-09-12T00:10:40;101602.03;;;13.72;97.60
54042;BME280;41156;51.508;5.406;2022-09-12T00:13:41;101605.22;;;13.69;96.94
54042;BME280;41156;51.508;5.406;2022-09-12T00:16:42;101602.06;;;13.65;97.41
54042;BME280;41156;51.508;5.406;2022-09-12T00:19:42;101592.50;;;13.63;97.51
54042;BME280;41156;51.508;5.406;2022-09-12T00:22:42;101589.38;;;13.59;97.46
54042;BME280;41156;51.508;5.406;2022-09-12T00:25:44;101589.59;;;13.58;97.64
54042;BME280;41156;51.508;5.406;2022-09-12T00:28:46;101590.25;;;13.53;97.14
54042;BME280;41156;51.508;5.406;2022-09-12T00:31:47;101595.28;;;13.49;97.41
54042;BME280;41156;51.508;5.406;2022-09-12T00:34:47;101591.53;;;13.44;97.06
54042;BME280;41156;51.508;5.406;2022-09-12T00:37:48;101577.34;;;13.42;97.88
54042;BME280;41156;51.508;5.406;2022-09-12T00:40:48;101581.13;;;13.41;98.06
54042;BME280;41156;51.508;5.406;2022-09-12T00:43:51;101577.75;;;13.39;97.27
54042;BME280;41156;51.508;5.406;2022-09-12T00:46:56;101579.03;;;13.36;97.95
54042;BME280;41156;51.508;5.406;2022-09-12T00:50:06;101575.94;;;13.32;97.93
54042;BME280;41156;51.508;5.406;2022-09-12T00:53:07;101573.63;;;13.29;97.53
54042;BME280;41156;51.508;5.406;2022-09-12T00:56:08;101574.03;;;13.26;97.58
54042;BME280;41156;51.508;5.406;2022-09-12T00:59:14;101572.38;;;13.25;98.02
54042;BME280;41156;51.508;5.406;2022-09-12T01:02:16;101568.44;;;13.21;97.54
54042;BME280;41156;51.508;5.406;2022-09-12T01:05:17;101559.69;;;13.19;98.13
54042;BME280;41156;51.508;5.406;2022-09-12T01:08:19;101558.22;;;13.17;98.16
54042;BME280;41156;51.508;5.406;2022-09-12T01:11:20;101555.72;;;13.15;97.86
54042;BME280;41156;51.508;5.406;2022-09-12T01:14:21;101559.03;;;13.17;98.01
54042;BME280;41156;51.508;5.406;2022-09-12T01:17:23;101551.13;;;13.16;98.37
54042;BME280;41156;51.508;5.406;2022-09-12T01:36:42;101542.00;;;12.96;98.31
54042;BME280;41156;51.508;5.406;2022-09-12T01:40:03;101544.72;;;12.96;98.67
54042;BME280;41156;51.508;5.406;2022-09-12T01:46:17;101535.34;;;12.99;98.54
54042;BME280;41156;51.508;5.406;2022-09-12T01:49:28;101536.16;;;13.00;98.78
54042;BME280;41156;51.508;5.406;2022-09-12T01:52:43;101537.41;;;12.97;99.37
54042;BME280;41156;51.508;5.406;2022-09-12T01:55:55;101530.31;;;12.96;99.29
54042;BME280;41156;51.508;5.406;2022-09-12T02:02:10;101515.72;;;12.90;98.84
54042;BME280;41156;51.508;5.406;2022-09-12T02:05:17;101511.56;;;12.88;98.88
54042;BME280;41156;51.508;5.406;2022-09-12T02:08:24;101510.75;;;12.87;98.85
54042;BME280;41156;51.508;5.406;2022-09-12T02:11:27;101506.56;;;12.85;98.84
54042;BME280;41156;51.508;5.406;2022-09-12T02:14:35;101504.50;;;12.80;99.23
54042;BME280;41156;51.508;5.406;2022-09-12T02:17:39;101498.47;;;12.78;99.08
54042;BME280;41156;51.508;5.406;2022-09-12T02:20:42;101494.06;;;12.77;99.20
54042;BME280;41156;51.508;5.406;2022-09-12T02:23:45;101505.78;;;12.71;99.58
54042;BME280;41156;51.508;5.406;2022-09-12T02:26:54;101506.22;;;12.68;99.13
54042;BME280;41156;51.508;5.406;2022-09-12T02:29:55;101509.34;;;12.65;99.17
54042;BME280;41156;51.508;5.406;2022-09-12T02:33:18;101506.00;;;12.63;99.79
54042;BME280;41156;51.508;5.406;2022-09-12T02:36:30;101513.28;;;12.62;99.28
54042;BME280;41156;51.508;5.406;2022-09-12T02:39:32;101508.72;;;12.63;99.44
54042;BME280;41156;51.508;5.406;2022-09-12T02:42:32;101507.66;;;12.64;99.15
54042;BME280;41156;51.508;5.406;2022-09-12T02:45:34;101506.22;;;12.61;99.83
54042;BME280;41156;51.508;5.406;2022-09-12T02:48:37;101505.16;;;12.62;99.91
54042;BME280;41156;51.508;5.406;2022-09-12T02:51:40;101496.41;;;12.60;99.75
54042;BME280;41156;51.508;5.406;2022-09-12T02:54:40;101495.38;;;12.61;99.61
54042;BME280;41156;51.508;5.406;2022-09-12T02:57:42;101489.34;;;12.59;99.85
54042;BME280;41156;51.508;5.406;2022-09-12T03:00:53;101487.47;;;12.59;100.00
54042;BME280;41156;51.508;5.406;2022-09-12T03:10:41;101478.25;;;12.61;100.00
54042;BME280;41156;51.508;5.406;2022-09-12T03:14:10;101478.91;;;12.63;100.00
54042;BME280;41156;51.508;5.406;2022-09-12T03:21:09;101474.13;;;12.58;100.00
54042;BME280;41156;51.508;5.406;2022-09-12T03:23:53;101473.28;;;12.57;100.00
54042;BME280;41156;51.508;5.406;2022-09-12T03:27:21;101469.94;;;12.55;100.00
54042;BME280;41156;51.508;5.406;2022-09-12T03:30:25;101476.84;;;12.51;100.00
54042;BME280;41156;51.508;5.406;2022-09-12T03:33:25;101477.06;;;12.50;100.00
54042;BME280;41156;51.508;5.406;2022-09-12T03:36:28;101480.59;;;12.50;100.00
54042;BME280;41156;51.508;5.406;2022-09-12T03:39:29;101468.09;;;12.49;100.00
54042;BME280;41156;51.508;5.406;2022-09-12T03:42:29;101472.66;;;12.49;100.00
54042;BME280;41156;51.508;5.406;2022-09-12T03:45:29;101470.16;;;12.47;99.87
54042;BME280;41156;51.508;5.406;2022-09-12T03:48:29;101466.63;;;12.47;100.00
54042;BME280;41156;51.508;5.406;2022-09-12T03:51:30;101466.84;;;12.45;100.00
54042;BME280;41156;51.508;5.406;2022-09-12T03:54:31;101473.31;;;12.44;100.00
54042;BME280;41156;51.508;5.406;2022-09-12T03:57:31;101461.63;;;12.44;100.00
54042;BME280;41156;51.508;5.406;2022-09-12T04:00:31;101457.06;;;12.44;100.00
54042;BME280;41156;51.508;5.406;2022-09-12T04:03:32;101451.19;;;12.47;100.00
54042;BME280;41156;51.508;5.406;2022-09-12T04:06:32;101456.59;;;12.47;100.00
54042;BME280;41156;51.508;5.406;2022-09-12T04:09:33;101451.19;;;12.47;100.00
54042;BME280;41156;51.508;5.406;2022-09-12T04:12:33;101445.75;;;12.47;100.00
54042;BME280;41156;51.508;5.406;2022-09-12T04:15:34;101449.13;;;12.49;100.00
54042;BME280;41156;51.508;5.406;2022-09-12T04:18:35;101448.06;;;12.50;100.00
54042;BME280;41156;51.508;5.406;2022-09-12T04:21:35;101443.50;;;12.51;100.00
54042;BME280;41156;51.508;5.406;2022-09-12T04:24:35;101442.44;;;12.52;100.00
54042;BME280;41156;51.508;5.406;2022-09-12T04:27:36;101447.22;;;12.56;100.00
54042;BME280;41156;51.508;5.406;2022-09-12T04:30:36;101436.78;;;12.60;100.00
54042;BME280;41156;51.508;5.406;2022-09-12T04:33:37;101439.06;;;12.63;100.00
54042;BME280;41156;51.508;5.406;2022-09-12T04:36:37;101434.03;;;12.67;100.00
54042;BME280;41156;51.508;5.406;2022-09-12T04:39:38;101439.47;;;12.67;100.00
54042;BME280;41156;51.508;5.406;2022-09-12T04:42:38;101435.72;;;12.68;100.00
54042;BME280;41156;51.508;5.406;2022-09-12T04:45:38;101428.19;;;12.70;100.00
54042;BME280;41156;51.508;5.406;2022-09-12T04:48:39;101427.75;;;12.73;100.00
54042;BME280;41156;51.508;5.406;2022-09-12T04:51:40;101430.47;;;12.73;100.00
54042;BME280;41156;51.508;5.406;2022-09-12T04:54:41;101427.56;;;12.74;100.00
54042;BME280;41156;51.508;5.406;2022-09-12T04:57:41;101428.16;;;12.76;100.00
54042;BME280;41156;51.508;5.406;2022-09-12T05:00:42;101431.69;;;12.77;100.00
54042;BME280;41156;51.508;5.406;2022-09-12T05:03:43;101431.06;;;12.82;100.00
54042;BME280;41156;51.508;5.406;2022-09-12T05:06:44;101433.78;;;12.82;100.00
54042;BME280;41156;51.508;5.406;2022-09-12T05:09:46;101435.22;;;12.84;100.00
54042;BME280;41156;51.508;5.406;2022-09-12T05:12:46;101436.88;;;12.85;100.00
54042;BME280;41156;51.508;5.406;2022-09-12T05:15:54;101435.22;;;12.84;100.00
54042;BME280;41156;51.508;5.406;2022-09-12T05:18:55;101435.03;;;12.86;100.00
54042;BME280;41156;51.508;5.406;2022-09-12T05:21:57;101440.22;;;12.87;100.00
54042;BME280;41156;51.508;5.406;2022-09-12T05:24:57;101442.69;;;12.89;100.00
54042;BME280;41156;51.508;5.406;2022-09-12T05:27:58;101445.19;;;12.90;100.00
54042;BME280;41156;51.508;5.406;2022-09-12T05:31:03;101444.78;;;12.93;100.00
54042;BME280;41156;51.508;5.406;2022-09-12T05:34:03;101443.72;;;12.94;100.00
54042;BME280;41156;51.508;5.406;2022-09-12T05:37:06;101429.09;;;12.95;100.00
54042;BME280;41156;51.508;5.406;2022-09-12T05:40:06;101438.50;;;13.00;100.00
54042;BME280;41156;51.508;5.406;2022-09-12T05:43:07;101436.78;;;13.05;100.00
54042;BME280;41156;51.508;5.406;2022-09-12T05:46:10;101430.09;;;13.08;100.00
54042;BME280;41156;51.508;5.406;2022-09-12T05:49:12;101437.81;;;13.11;100.00
54042;BME280;41156;51.508;5.406;2022-09-12T05:52:13;101439.88;;;13.16;100.00
54042;BME280;41156;51.508;5.406;2022-09-12T05:55:13;101447.97;;;13.22;100.00
54042;BME280;41156;51.508;5.406;2022-09-12T05:58:14;101448.75;;;13.29;100.00
54042;BME280;41156;51.508;5.406;2022-09-12T06:01:15;101446.03;;;13.36;100.00
54042;BME280;41156;51.508;5.406;2022-09-12T06:04:16;101453.53;;;13.41;100.00
54042;BME280;41156;51.508;5.406;2022-09-12T06:07:16;101459.97;;;13.46;100.00
54042;BME280;41156;51.508;5.406;2022-09-12T06:10:17;101462.03;;;13.51;100.00
54042;BME280;41156;51.508;5.406;2022-09-12T06:13:17;101468.66;;;13.55;100.00
54042;BME280;41156;51.508;5.406;2022-09-12T06:16:20;101464.47;;;13.59;100.00
54042;BME280;41156;51.508;5.406;2022-09-12T06:19:21;101464.03;;;13.62;100.00
54042;BME280;41156;51.508;5.406;2022-09-12T06:22:22;101465.25;;;13.66;100.00
54042;BME280;41156;51.508;5.406;2022-09-12T06:25:23;101457.94;;;13.67;100.00
54042;BME280;41156;51.508;5.406;2022-09-12T06:28:24;101460.19;;;13.70;100.00
54042;BME280;41156;51.508;5.406;2022-09-12T06:31:33;101454.78;;;13.70;100.00
54042;BME280;41156;51.508;5.406;2022-09-12T06:34:33;101449.13;;;13.72;100.00
54042;BME280;41156;51.508;5.406;2022-09-12T06:37:35;101457.66;;;13.75;100.00
54042;BME280;41156;51.508;5.406;2022-09-12T06:40:42;101454.88;;;13.82;100.00
54042;BME280;41156;51.508;5.406;2022-09-12T06:43:43;101452.97;;;13.89;100.00
54042;BME280;41156;51.508;5.406;2022-09-12T06:46:44;101454.34;;;13.98;100.00
54042;BME280;41156;51.508;5.406;2022-09-12T06:49:45;101451.50;;;14.12;100.00
54042;BME280;41156;51.508;5.406;2022-09-12T06:52:47;101442.31;;;14.31;100.00
54042;BME280;41156;51.508;5.406;2022-09-12T06:55:58;101450.72;;;14.48;100.00
54042;BME280;41156;51.508;5.406;2022-09-12T06:58:59;101442.81;;;14.65;100.00
54042;BME280;41156;51.508;5.406;2022-09-12T07:01:59;101442.31;;;14.87;100.00
54042;BME280;41156;51.508;5.406;2022-09-12T07:05:00;101443.38;;;15.04;100.00
54042;BME280;41156;51.508;5.406;2022-09-12T07:08:01;101445.31;;;15.15;100.00
54042;BME280;41156;51.508;5.406;2022-09-12T07:11:10;101439.06;;;15.27;100.00
54042;BME280;41156;51.508;5.406;2022-09-12T07:14:12;101442.59;;;15.58;100.00
54042;BME280;41156;51.508;5.406;2022-09-12T07:17:13;101450.38;;;15.96;100.00
54042;BME280;41156;51.508;5.406;2022-09-12T07:20:13;101444.03;;;16.67;100.00
54042;BME280;41156;51.508;5.406;2022-09-12T07:23:14;101439.56;;;17.01;99.04
54042;BME280;41156;51.508;5.406;2022-09-12T07:26:15;101434.78;;;17.37;97.77
54042;BME280;41156;51.508;5.406;2022-09-12T07:29:15;101440.03;;;18.06;97.09
54042;BME280;41156;51.508;5.406;2022-09-12T07:32:16;101431.81;;;18.67;95.44
54042;BME280;41156;51.508;5.406;2022-09-12T07:35:16;101432.56;;;19.34;93.85
54042;BME280;41156;51.508;5.406;2022-09-12T07:38:17;101433.78;;;19.76;92.24
54042;BME280;41156;51.508;5.406;2022-09-12T07:41:25;101438.44;;;20.13;90.76
54042;BME280;41156;51.508;5.406;2022-09-12T07:44:25;101435.84;;;20.39;90.90
54042;BME280;41156;51.508;5.406;2022-09-12T07:47:26;101441.78;;;20.73;88.28
54042;BME280;41156;51.508;5.406;2022-09-12T07:50:26;101444.91;;;21.02;87.52
54042;BME280;41156;51.508;5.406;2022-09-12T07:53:30;101440.81;;;21.10;80.55
54042;BME280;41156;51.508;5.406;2022-09-12T07:56:31;101437.28;;;21.35;85.45
54042;BME280;41156;51.508;5.406;2022-09-12T07:59:32;101456.84;;;21.54;84.62
54042;BME280;41156;51.508;5.406;2022-09-12T08:02:32;101452.19;;;21.91;83.86
54042;BME280;41156;51.508;5.406;2022-09-12T08:05:32;101446.09;;;22.04;82.53
54042;BME280;41156;51.508;5.406;2022-09-12T08:08:33;101445.53;;;22.12;81.16
54042;BME280;41156;51.508;5.406;2022-09-12T08:11:33;101440.56;;;22.20;80.61
54042;BME280;41156;51.508;5.406;2022-09-12T08:14:34;101449.38;;;22.27;79.86
54042;BME280;41156;51.508;5.406;2022-09-12T08:17:34;101448.81;;;22.40;79.75
54042;BME280;41156;51.508;5.406;2022-09-12T08:20:34;101446.06;;;22.40;79.00
54042;BME280;41156;51.508;5.406;2022-09-12T08:23:35;101451.06;;;22.07;78.89
54042;BME280;41156;51.508;5.406;2022-09-12T08:26:35;101454.66;;;21.92;79.00
54042;BME280;41156;51.508;5.406;2022-09-12T08:29:35;101453.53;;;21.83;78.96
54042;BME280;41156;51.508;5.406;2022-09-12T08:32:36;101461.53;;;21.74;78.37
54042;BME280;41156;51.508;5.406;2022-09-12T08:35:36;101461.81;;;21.68;78.43
54042;BME280;41156;51.508;5.406;2022-09-12T08:38:38;101460.16;;;21.51;78.14
54042;BME280;41156;51.508;5.406;2022-09-12T08:41:43;101457.59;;;21.19;75.97
54042;BME280;41156;51.508;5.406;2022-09-12T08:44:58;101455.91;;;20.97;75.02
54042;BME280;41156;51.508;5.406;2022-09-12T08:48:04;101454.84;;;21.09;79.20
54042;BME280;41156;51.508;5.406;2022-09-12T08:51:09;101463.09;;;21.14;77.46
54042;BME280;41156;51.508;5.406;2022-09-12T08:54:24;101452.13;;;21.24;76.30
54042;BME280;41156;51.508;5.406;2022-09-12T08:57:26;101455.69;;;21.40;79.04
54042;BME280;41156;51.508;5.406;2022-09-12T09:00:34;101444.44;;;21.47;76.26
54042;BME280;41156;51.508;5.406;2022-09-12T09:10:11;101443.94;;;21.60;77.63
54042;BME280;41156;51.508;5.406;2022-09-12T09:16:57;101434.88;;;21.85;76.87
54042;BME280;41156;51.508;5.406;2022-09-12T09:23:21;101433.16;;;22.20;72.31
54042;BME280;41156;51.508;5.406;2022-09-12T09:26:52;101435.38;;;22.28;72.15
54042;BME280;41156;51.508;5.406;2022-09-12T09:29:55;101440.28;;;22.26;74.61
54042;BME280;41156;51.508;5.406;2022-09-12T09:32:59;101434.22;;;22.24;72.76
54042;BME280;41156;51.508;5.406;2022-09-12T09:36:13;101428.72;;;22.24;70.01
54042;BME280;41156;51.508;5.406;2022-09-12T09:39:40;101429.28;;;22.31;70.43
54042;BME280;41156;51.508;5.406;2022-09-12T09:43:02;101419.03;;;22.52;71.70
54042;BME280;41156;51.508;5.406;2022-09-12T09:46:05;101418.41;;;22.71;71.94
54042;BME280;41156;51.508;5.406;2022-09-12T09:49:06;101412.22;;;22.89;71.14
54042;BME280;41156;51.508;5.406;2022-09-12T09:52:14;101406.09;;;23.03;69.38
54042;BME280;41156;51.508;5.406;2022-09-12T09:55:19;101401.09;;;23.15;66.50
54042;BME280;41156;51.508;5.406;2022-09-12T09:58:33;101391.09;;;23.24;66.14
54042;BME280;41156;51.508;5.406;2022-09-12T10:01:33;101398.41;;;23.39;69.25
54042;BME280;41156;51.508;5.406;2022-09-12T10:04:41;101394.66;;;23.59;65.65
54042;BME280;41156;51.508;5.406;2022-09-12T10:07:51;101386.84;;;23.72;68.32
54042;BME280;41156;51.508;5.406;2022-09-12T10:14:37;101382.53;;;23.90;66.58
54042;BME280;41156;51.508;5.406;2022-09-12T10:17:42;101381.03;;;24.02;66.85
54042;BME280;41156;51.508;5.406;2022-09-12T10:20:43;101375.88;;;24.20;67.28
54042;BME280;41156;51.508;5.406;2022-09-12T10:23:45;101365.16;;;24.37;65.32
54042;BME280;41156;51.508;5.406;2022-09-12T10:26:52;101362.09;;;24.39;62.23
54042;BME280;41156;51.508;5.406;2022-09-12T10:33:13;101358.56;;;24.58;65.25
54042;BME280;41156;51.508;5.406;2022-09-12T10:36:15;101353.16;;;24.71;63.95
54042;BME280;41156;51.508;5.406;2022-09-12T10:39:17;101345.66;;;24.91;62.98
54042;BME280;41156;51.508;5.406;2022-09-12T10:42:44;101339.75;;;24.98;59.40
54042;BME280;41156;51.508;5.406;2022-09-12T10:45:45;101340.81;;;25.02;63.47
54042;BME280;41156;51.508;5.406;2022-09-12T10:48:50;101336.91;;;25.03;62.13
54042;BME280;41156;51.508;5.406;2022-09-12T10:51:52;101333.59;;;25.20;60.36
54042;BME280;41156;51.508;5.406;2022-09-12T10:54:53;101333.97;;;25.32;61.91
54042;BME280;41156;51.508;5.406;2022-09-12T10:58:09;101323.41;;;25.34;57.71
54042;BME280;41156;51.508;5.406;2022-09-12T11:01:24;101323.53;;;25.43;54.66
54042;BME280;41156;51.508;5.406;2022-09-12T11:08:02;101321.94;;;25.56;54.80
54042;BME280;41156;51.508;5.406;2022-09-12T11:11:38;101308.59;;;25.58;55.38
54042;BME280;41156;51.508;5.406;2022-09-12T11:18:16;101316.97;;;25.99;55.49
54042;BME280;41156;51.508;5.406;2022-09-12T11:21:45;101308.03;;;26.02;53.30
54042;BME280;41156;51.508;5.406;2022-09-12T11:38:14;101297.38;;;26.74;53.71
54042;BME280;41156;51.508;5.406;2022-09-12T11:41:25;101299.00;;;26.75;53.28
54042;BME280;41156;51.508;5.406;2022-09-12T11:44:40;101294.97;;;26.81;51.85
54042;BME280;41156;51.508;5.406;2022-09-12T11:47:50;101287.09;;;26.74;48.32
54042;BME280;41156;51.508;5.406;2022-09-12T11:50:53;101294.59;;;26.74;53.69
54042;BME280;41156;51.508;5.406;2022-09-12T11:54:12;101293.91;;;26.54;46.98
54042;BME280;41156;51.508;5.406;2022-09-12T12:00:31;101300.66;;;26.62;50.11
54042;BME280;41156;51.508;5.406;2022-09-12T12:03:40;101293.72;;;26.65;50.63
54042;BME280;41156;51.508;5.406;2022-09-12T12:07:00;101286.09;;;26.70;47.74
54042;BME280;41156;51.508;5.406;2022-09-12T12:10:02;101286.00;;;26.62;46.17
54042;BME280;41156;51.508;5.406;2022-09-12T12:13:08;101291.94;;;26.69;47.71
54042;BME280;41156;51.508;5.406;2022-09-12T12:16:23;101277.22;;;26.82;48.64
54042;BME280;41156;51.508;5.406;2022-09-12T12:19:30;101272.88;;;26.90;49.60
54042;BME280;41156;51.508;5.406;2022-09-12T12:22:31;101276.69;;;27.03;50.66
54042;BME280;41156;51.508;5.406;2022-09-12T12:25:51;101277.47;;;27.26;46.12
54042;BME280;41156;51.508;5.406;2022-09-12T12:35:32;101266.53;;;27.21;47.65
54042;BME280;41156;51.508;5.406;2022-09-12T12:47:46;101256.19;;;27.35;48.90
54042;BME280;41156;51.508;5.406;2022-09-12T12:50:49;101258.38;;;27.47;49.83
54042;BME280;41156;51.508;5.406;2022-09-12T12:53:49;101243.31;;;27.39;49.31
54042;BME280;41156;51.508;5.406;2022-09-12T12:57:00;101247.59;;;27.45;46.73
54042;BME280;41156;51.508;5.406;2022-09-12T13:00:07;101243.84;;;27.41;46.06
54042;BME280;41156;51.508;5.406;2022-09-12T13:03:29;101246.41;;;27.38;46.50
54042;BME280;41156;51.508;5.406;2022-09-12T13:06:39;101234.81;;;27.36;45.36
54042;BME280;41156;51.508;5.406;2022-09-12T13:09:46;101233.53;;;27.42;44.54
54042;BME280;41156;51.508;5.406;2022-09-12T13:12:48;101222.94;;;27.44;47.88
54042;BME280;41156;51.508;5.406;2022-09-12T13:15:50;101219.25;;;27.66;48.47
54042;BME280;41156;51.508;5.406;2022-09-12T13:18:50;101214.72;;;27.87;48.25
54042;BME280;41156;51.508;5.406;2022-09-12T13:22:05;101211.16;;;27.87;45.01
54042;BME280;41156;51.508;5.406;2022-09-12T13:25:34;101206.06;;;27.89;41.37
54042;BME280;41156;51.508;5.406;2022-09-12T13:28:35;101203.25;;;27.63;46.84
54042;BME280;41156;51.508;5.406;2022-09-12T13:31:36;101204.16;;;27.49;46.50
54042;BME280;41156;51.508;5.406;2022-09-12T13:34:59;101207.09;;;27.44;45.26
54042;BME280;41156;51.508;5.406;2022-09-12T13:38:19;101187.50;;;27.41;44.82
54042;BME280;41156;51.508;5.406;2022-09-12T13:44:46;101194.09;;;27.22;42.99
54042;BME280;41156;51.508;5.406;2022-09-12T13:47:51;101190.19;;;27.23;45.88
54042;BME280;41156;51.508;5.406;2022-09-12T13:50:59;101190.78;;;27.11;43.83
54042;BME280;41156;51.508;5.406;2022-09-12T13:54:02;101187.50;;;27.09;46.13
54042;BME280;41156;51.508;5.406;2022-09-12T13:57:04;101186.25;;;27.24;44.96
54042;BME280;41156;51.508;5.406;2022-09-12T14:03:27;101181.94;;;27.41;42.48
54042;BME280;41156;51.508;5.406;2022-09-12T14:06:50;101173.84;;;27.53;45.01
54042;BME280;41156;51.508;5.406;2022-09-12T14:09:53;101164.41;;;27.63;45.14
54042;BME280;41156;51.508;5.406;2022-09-12T14:12:55;101163.41;;;27.59;45.66
54042;BME280;41156;51.508;5.406;2022-09-12T14:15:56;101149.34;;;27.55;45.66
54042;BME280;41156;51.508;5.406;2022-09-12T14:18:58;101154.22;;;27.49;45.72
54042;BME280;41156;51.508;5.406;2022-09-12T14:21:59;101145.09;;;27.49;45.79
54042;BME280;41156;51.508;5.406;2022-09-12T14:25:01;101162.81;;;27.30;45.43
54042;BME280;41156;51.508;5.406;2022-09-12T14:28:02;101160.53;;;27.01;45.64
54042;BME280;41156;51.508;5.406;2022-09-12T14:31:21;101153.19;;;26.97;43.02
54042;BME280;41156;51.508;5.406;2022-09-12T14:34:21;101152.34;;;26.96;45.40
54042;BME280;41156;51.508;5.406;2022-09-12T14:37:23;101138.81;;;26.94;44.40
54042;BME280;41156;51.508;5.406;2022-09-12T14:40:24;101132.91;;;26.87;44.85
54042;BME280;41156;51.508;5.406;2022-09-12T14:43:28;101127.03;;;26.89;45.01
54042;BME280;41156;51.508;5.406;2022-09-12T14:46:34;101129.00;;;26.88;42.92
54042;BME280;41156;51.508;5.406;2022-09-12T14:49:35;101120.38;;;26.90;44.23
54042;BME280;41156;51.508;5.406;2022-09-12T14:52:36;101121.22;;;26.99;44.25
54042;BME280;41156;51.508;5.406;2022-09-12T14:55:48;101127.63;;;27.08;43.96
54042;BME280;41156;51.508;5.406;2022-09-12T14:58:49;101124.84;;;27.08;45.19
54042;BME280;41156;51.508;5.406;2022-09-12T15:02:30;101123.91;;;27.13;44.05
54042;BME280;41156;51.508;5.406;2022-09-12T15:05:30;101126.16;;;27.11;45.75
54042;BME280;41156;51.508;5.406;2022-09-12T15:08:31;101121.72;;;27.01;45.17
54042;BME280;41156;51.508;5.406;2022-09-12T15:11:31;101111.81;;;26.77;45.49
54042;BME280;41156;51.508;5.406;2022-09-12T15:14:32;101105.91;;;26.70;45.21
54042;BME280;41156;51.508;5.406;2022-09-12T15:17:33;101105.56;;;26.63;44.54
54042;BME280;41156;51.508;5.406;2022-09-12T15:20:38;101108.38;;;26.49;44.01
54042;BME280;41156;51.508;5.406;2022-09-12T15:23:40;101094.66;;;26.44;45.14
54042;BME280;41156;51.508;5.406;2022-09-12T15:26:41;101093.97;;;26.38;45.52
54042;BME280;41156;51.508;5.406;2022-09-12T15:29:42;101096.56;;;26.35;45.57
54042;BME280;41156;51.508;5.406;2022-09-12T15:32:43;101098.31;;;26.31;45.23
54042;BME280;41156;51.508;5.406;2022-09-12T15:35:44;101086.38;;;26.21;46.12
54042;BME280;41156;51.508;5.406;2022-09-12T15:38:45;101092.97;;;26.12;46.06
54042;BME280;41156;51.508;5.406;2022-09-12T15:41:46;101096.38;;;26.09;46.66
54042;BME280;41156;51.508;5.406;2022-09-12T15:44:47;101085.09;;;25.91;46.34
54042;BME280;41156;51.508;5.406;2022-09-12T15:47:47;101088.31;;;25.84;46.71
54042;BME280;41156;51.508;5.406;2022-09-12T15:50:47;101092.66;;;25.77;47.28
54042;BME280;41156;51.508;5.406;2022-09-12T15:53:49;101097.69;;;25.61;47.19
54042;BME280;41156;51.508;5.406;2022-09-12T15:56:50;101086.38;;;25.48;47.91
54042;BME280;41156;51.508;5.406;2022-09-12T15:59:50;101080.53;;;25.36;48.16
54042;BME280;41156;51.508;5.406;2022-09-12T16:02:52;101082.78;;;25.20;47.62
54042;BME280;41156;51.508;5.406;2022-09-12T16:05:59;101077.75;;;25.08;48.49
54042;BME280;41156;51.508;5.406;2022-09-12T16:09:00;101066.38;;;24.96;48.45
54042;BME280;41156;51.508;5.406;2022-09-12T16:12:01;101064.22;;;24.93;48.73
54042;BME280;41156;51.508;5.406;2022-09-12T16:15:01;101056.97;;;24.83;48.78
54042;BME280;41156;51.508;5.406;2022-09-12T16:18:01;101057.69;;;24.75;49.02
54042;BME280;41156;51.508;5.406;2022-09-12T16:21:02;101052.56;;;24.68;49.51
54042;BME280;41156;51.508;5.406;2022-09-12T16:24:02;101057.34;;;24.63;48.90
54042;BME280;41156;51.508;5.406;2022-09-12T16:27:03;101066.31;;;24.54;49.21
54042;BME280;41156;51.508;5.406;2022-09-12T16:30:05;101061.19;;;24.48;48.32
54042;BME280;41156;51.508;5.406;2022-09-12T16:33:06;101060.75;;;24.41;49.20
54042;BME280;41156;51.508;5.406;2022-09-12T16:36:08;101061.75;;;24.31;48.89
54042;BME280;41156;51.508;5.406;2022-09-12T16:39:09;101063.78;;;24.25;49.19
54042;BME280;41156;51.508;5.406;2022-09-12T16:42:09;101055.38;;;24.16;49.92
54042;BME280;41156;51.508;5.406;2022-09-12T16:45:11;101051.44;;;24.04;50.36
54042;BME280;41156;51.508;5.406;2022-09-12T16:48:11;101049.97;;;23.92;51.03
54042;BME280;41156;51.508;5.406;2022-09-12T16:51:12;101047.88;;;23.84;51.09
54042;BME280;41156;51.508;5.406;2022-09-12T16:54:15;101035.25;;;23.78;51.42
54042;BME280;41156;51.508;5.406;2022-09-12T16:57:16;101041.97;;;23.72;52.29
54042;BME280;41156;51.508;5.406;2022-09-12T17:00:16;101028.56;;;23.65;52.58
54042;BME280;41156;51.508;5.406;2022-09-12T17:03:17;101031.06;;;23.61;53.15
54042;BME280;41156;51.508;5.406;2022-09-12T17:06:17;101024.81;;;23.56;53.49
54042;BME280;41156;51.508;5.406;2022-09-12T17:09:18;101025.41;;;23.53;53.48
54042;BME280;41156;51.508;5.406;2022-09-12T17:12:18;101014.16;;;23.49;53.28
54042;BME280;41156;51.508;5.406;2022-09-12T17:15:18;101009.84;;;23.43;53.94
54042;BME280;41156;51.508;5.406;2022-09-12T17:18:19;101009.97;;;23.33;54.60
54042;BME280;41156;51.508;5.406;2022-09-12T17:21:20;101000.75;;;23.23;54.97
54042;BME280;41156;51.508;5.406;2022-09-12T17:24:21;100992.91;;;23.12;55.38
54042;BME280;41156;51.508;5.406;2022-09-12T17:27:22;100974.00;;;23.00;55.88
54042;BME280;41156;51.508;5.406;2022-09-12T17:30:22;100974.13;;;22.89;55.49
54042;BME280;41156;51.508;5.406;2022-09-12T17:33:23;100975.91;;;22.80;56.22
54042;BME280;41156;51.508;5.406;2022-09-12T17:36:23;100972.44;;;22.69;56.17
54042;BME280;41156;51.508;5.406;2022-09-12T17:39:24;100972.88;;;22.58;56.79